sensor_id;sensor_type;location;lat;lon;timestamp;pressure;altitude;pressure_sealevel;temperature;humidity
7824;BME280;3957;48.61947800;9.05303100;2024-03-02T00:00:16;94908.69;;;3.38;100.00
7824;BME280;3957;48.61947800;9.05303100;2024-03-02T00:01:19;94903.75;;;3.35;100.00
7824;BME280;3957;48.61947800;9.05303100;2024-03-02T00:02:21;94911.25;;;3.32;100.00
7824;BME280;3957;48.61947800;9.05303100;2024-03-02T00:03:22;94912.00;;;3.26;100.00
7824;BME280;3957;48.61947800;9.05303100;2024-03-02T00:04:24;94905.31;;;3.30;100.00
7824;BME280;3957;48.61947800;9.05303100;2024-03-02T00:05:25;94904.59;;;3.36;100.00
7824;BME280;3957;48.61947800;9.05303100;2024-03-02T00:06:27;94907.72;;;3.46;100.00
7824;BME280;3957;48.61947800;9.05303100;2024-03-02T00:07:29;94903.38;;;3.60;100.00
7824;BME280;3957;48.61947800;9.05303100;2024-03-02T00:08:30;94908.25;;;3.56;100.00
7824;BME280;3957;48.61947800;9.05303100;2024-03-02T00:09:32;94903.69;;;3.50;100.00
7824;BME280;3957;48.61947800;9.05303100;2024-03-02T00:10:38;94907.34;;;3.49;100.00
7824;BME280;3957;48.61947800;9.05303100;2024-03-02T00:11:43;94904.22;;;3.61;100.00
7824;BME280;3957;48.61947800;9.05303100;2024-03-02T00:12:47;94909.31;;;3.62;100.00
7824;BME280;3957;48.61947800;9.05303100;2024-03-02T00:13:48;94905.59;;;3.56;100.00
7824;BME280;3957;48.61947800;9.05303100;2024-03-02T00:14:53;94902.56;;;3.60;100.00
7824;BME280;3957;48.61947800;9.05303100;2024-03-02T00:15:56;94905.94;;;3.53;100.00
7824;BME280;3957;48.61947800;9.05303100;2024-03-02T00:16:58;94901.31;;;3.55;100.00
7824;BME280;3957;48.61947800;9.05303100;2024-03-02T00:18:00;94907.97;;;3.51;100.00
7824;BME280;3957;48.61947800;9.05303100;2024-03-02T00:19:03;94898.94;;;3.67;100.00
7824;BME280;3957;48.61947800;9.05303100;2024-03-02T00:20:09;94904.19;;;3.82;100.00
7824;BME280;3957;48.61947800;9.05303100;2024-03-02T00:21:11;94906.34;;;3.72;100.00
7824;BME280;3957;48.61947800;9.05303100;2024-03-02T00:22:14;94903.00;;;3.63;100.00
7824;BME280;3957;48.61947800;9.05303100;2024-03-02T00:23:16;94906.22;;;3.58;100.00
7824;BME280;3957;48.61947800;9.05303100;2024-03-02T00:24:32;94909.81;;;3.51;100.00
7824;BME280;3957;48.61947800;9.05303100;2024-03-02T00:25:58;94910.38;;;3.46;100.00
7824;BME280;3957;48.61947800;9.05303100;2024-03-02T00:27:03;94904.41;;;3.59;100.00
7824;BME280;3957;48.61947800;9.05303100;2024-03-02T00:28:14;94913.97;;;3.60;100.00
7824;BME280;3957;48.61947800;9.05303100;2024-03-02T00:29:17;94911.13;;;3.62;100.00
7824;BME280;3957;48.61947800;9.05303100;2024-03-02T00:31:45;94910.78;;;3.71;100.00
7824;BME280;3957;48.61947800;9.05303100;2024-03-02T00:32:47;94905.81;;;3.62;100.00
7824;BME280;3957;48.61947800;9.05303100;2024-03-02T00:33:49;94911.88;;;3.55;100.00
7824;BME280;3957;48.61947800;9.05303100;2024-03-02T00:34:51;94913.88;;;3.53;100.00
7824;BME280;3957;48.61947800;9.05303100;2024-03-02T00:35:52;94908.56;;;3.47;100.00
7824;BME280;3957;48.61947800;9.05303100;2024-03-02T00:36:57;94913.78;;;3.40;100.00
7824;BME280;3957;48.61947800;9.05303100;2024-03-02T00:38:05;94909.75;;;3.44;100.00
7824;BME280;3957;48.61947800;9.05303100;2024-03-02T00:39:07;94914.59;;;3.40;100.00
7824;BME280;3957;48.61947800;9.05303100;2024-03-02T00:40:09;94913.50;;;3.35;100.00
7824;BME280;3957;48.61947800;9.05303100;2024-03-02T00:41:23;94908.09;;;3.43;100.00
7824;BME280;3957;48.61947800;9.05303100;2024-03-02T00:42:25;94899.25;;;3.51;100.00
7824;BME280;3957;48.61947800;9.05303100;2024-03-02T00:44:34;94906.16;;;3.52;100.00
7824;BME280;3957;48.61947800;9.05303100;2024-03-02T00:45:39;94906.78;;;3.54;100.00
7824;BME280;3957;48.61947800;9.05303100;2024-03-02T00:46:42;94903.38;;;3.60;100.00
7824;BME280;3957;48.61947800;9.05303100;2024-03-02T00:47:45;94901.19;;;3.64;100.00
7824;BME280;3957;48.61947800;9.05303100;2024-03-02T00:49:50;94908.56;;;3.47;100.00
7824;BME280;3957;48.61947800;9.05303100;2024-03-02T00:50:52;94900.97;;;3.65;100.00
7824;BME280;3957;48.61947800;9.05303100;2024-03-02T00:51:54;94905.22;;;3.60;100.00
7824;BME280;3957;48.61947800;9.05303100;2024-03-02T00:52:56;94905.78;;;3.55;100.00
7824;BME280;3957;48.61947800;9.05303100;2024-03-02T00:54:04;94904.06;;;3.47;100.00
7824;BME280;3957;48.61947800;9.05303100;2024-03-02T00:55:07;94908.69;;;3.38;100.00
7824;BME280;3957;48.61947800;9.05303100;2024-03-02T00:56:10;94912.81;;;3.26;100.00
7824;BME280;3957;48.61947800;9.05303100;2024-03-02T00:57:13;94918.31;;;3.25;100.00
7824;BME280;3957;48.61947800;9.05303100;2024-03-02T00:58:16;94918.56;;;3.15;100.00
7824;BME280;3957;48.61947800;9.05303100;2024-03-02T00:59:17;94917.97;;;3.13;100.00
7824;BME280;3957;48.61947800;9.05303100;2024-03-02T01:00:19;94913.28;;;3.15;100.00
7824;BME280;3957;48.61947800;9.05303100;2024-03-02T01:01:21;94917.16;;;3.12;100.00
7824;BME280;3957;48.61947800;9.05303100;2024-03-02T01:02:23;94907.31;;;3.06;100.00
7824;BME280;3957;48.61947800;9.05303100;2024-03-02T01:03:24;94912.41;;;3.08;100.00
7824;BME280;3957;48.61947800;9.05303100;2024-03-02T01:04:26;94905.94;;;3.10;100.00
7824;BME280;3957;48.61947800;9.05303100;2024-03-02T01:05:27;94918.69;;;3.06;100.00
7824;BME280;3957;48.61947800;9.05303100;2024-03-02T01:06:30;94906.19;;;3.15;100.00
7824;BME280;3957;48.61947800;9.05303100;2024-03-02T01:07:32;94913.66;;;3.12;100.00
7824;BME280;3957;48.61947800;9.05303100;2024-03-02T01:08:34;94900.59;;;3.25;100.00
7824;BME280;3957;48.61947800;9.05303100;2024-03-02T01:09:36;94908.09;;;3.21;100.00
7824;BME280;3957;48.61947800;9.05303100;2024-03-02T01:10:37;94901.06;;;3.29;100.00
7824;BME280;3957;48.61947800;9.05303100;2024-03-02T01:11:39;94904.63;;;3.21;100.00
7824;BME280;3957;48.61947800;9.05303100;2024-03-02T01:12:41;94908.66;;;3.17;100.00
7824;BME280;3957;48.61947800;9.05303100;2024-03-02T01:13:43;94907.34;;;3.28;100.00
7824;BME280;3957;48.61947800;9.05303100;2024-03-02T01:14:44;94912.50;;;3.36;100.00
7824;BME280;3957;48.61947800;9.05303100;2024-03-02T01:15:46;94899.22;;;3.29;100.00
7824;BME280;3957;48.61947800;9.05303100;2024-03-02T01:16:48;94900.59;;;3.25;100.00
7824;BME280;3957;48.61947800;9.05303100;2024-03-02T01:17:50;94905.81;;;3.18;100.00
7824;BME280;3957;48.61947800;9.05303100;2024-03-02T01:18:56;94915.69;;;3.10;100.00
7824;BME280;3957;48.61947800;9.05303100;2024-03-02T01:19:57;94904.06;;;3.04;100.00
7824;BME280;3957;48.61947800;9.05303100;2024-03-02T01:20:59;94908.69;;;3.02;100.00
7824;BME280;3957;48.61947800;9.05303100;2024-03-02T01:22:00;94904.22;;;3.02;100.00
7824;BME280;3957;48.61947800;9.05303100;2024-03-02T01:23:02;94906.03;;;3.02;100.00
7824;BME280;3957;48.61947800;9.05303100;2024-03-02T01:24:04;94900.47;;;2.97;100.00
7824;BME280;3957;48.61947800;9.05303100;2024-03-02T01:25:06;94898.69;;;2.97;100.00
7824;BME280;3957;48.61947800;9.05303100;2024-03-02T01:26:09;94899.06;;;2.94;100.00
7824;BME280;3957;48.61947800;9.05303100;2024-03-02T01:27:11;94900.44;;;2.90;100.00
7824;BME280;3957;48.61947800;9.05303100;2024-03-02T01:28:14;94896.34;;;2.87;100.00
7824;BME280;3957;48.61947800;9.05303100;2024-03-02T01:29:16;94901.25;;;2.91;100.00
7824;BME280;3957;48.61947800;9.05303100;2024-03-02T01:30:17;94896.47;;;3.01;100.00
7824;BME280;3957;48.61947800;9.05303100;2024-03-02T01:31:19;94904.75;;;3.13;100.00
7824;BME280;3957;48.61947800;9.05303100;2024-03-02T01:32:20;94896.75;;;3.06;100.00
7824;BME280;3957;48.61947800;9.05303100;2024-03-02T01:33:22;94899.94;;;3.01;100.00
7824;BME280;3957;48.61947800;9.05303100;2024-03-02T01:34:23;94898.38;;;3.07;100.00
7824;BME280;3957;48.61947800;9.05303100;2024-03-02T01:35:25;94898.19;;;3.09;100.00
7824;BME280;3957;48.61947800;9.05303100;2024-03-02T01:36:28;94896.13;;;3.04;100.00
7824;BME280;3957;48.61947800;9.05303100;2024-03-02T01:37:30;94898.50;;;2.99;100.00
7824;BME280;3957;48.61947800;9.05303100;2024-03-02T01:38:31;94902.25;;;2.89;100.00
7824;BME280;3957;48.61947800;9.05303100;2024-03-02T01:39:33;94902.31;;;2.96;100.00
7824;BME280;3957;48.61947800;9.05303100;2024-03-02T01:40:34;94895.78;;;2.92;100.00
7824;BME280;3957;48.61947800;9.05303100;2024-03-02T01:41:36;94896.53;;;2.86;100.00
7824;BME280;3957;48.61947800;9.05303100;2024-03-02T01:42:38;94895.78;;;2.77;100.00
7824;BME280;3957;48.61947800;9.05303100;2024-03-02T01:43:40;94900.47;;;2.75;100.00
7824;BME280;3957;48.61947800;9.05303100;2024-03-02T01:44:42;94898.63;;;2.76;100.00
7824;BME280;3957;48.61947800;9.05303100;2024-03-02T01:45:44;94902.81;;;2.70;100.00
7824;BME280;3957;48.61947800;9.05303100;2024-03-02T01:46:45;94904.81;;;2.68;100.00
7824;BME280;3957;48.61947800;9.05303100;2024-03-02T01:47:47;94904.72;;;2.76;100.00
7824;BME280;3957;48.61947800;9.05303100;2024-03-02T01:48:49;94903.41;;;3.02;100.00
7824;BME280;3957;48.61947800;9.05303100;2024-03-02T01:49:50;94899.00;;;3.09;100.00
7824;BME280;3957;48.61947800;9.05303100;2024-03-02T01:50:52;94901.13;;;2.99;100.00
7824;BME280;3957;48.61947800;9.05303100;2024-03-02T01:51:54;94904.50;;;2.93;100.00
7824;BME280;3957;48.61947800;9.05303100;2024-03-02T01:52:56;94899.16;;;2.86;100.00
7824;BME280;3957;48.61947800;9.05303100;2024-03-02T01:53:58;94900.25;;;2.92;100.00
7824;BME280;3957;48.61947800;9.05303100;2024-03-02T01:54:59;94902.78;;;3.00;100.00
7824;BME280;3957;48.61947800;9.05303100;2024-03-02T01:56:01;94898.69;;;2.97;100.00
7824;BME280;3957;48.61947800;9.05303100;2024-03-02T01:57:03;94895.38;;;2.95;100.00
7824;BME280;3957;48.61947800;9.05303100;2024-03-02T01:58:05;94893.69;;;2.87;100.00
7824;BME280;3957;48.61947800;9.05303100;2024-03-02T01:59:07;94893.31;;;2.91;100.00
7824;BME280;3957;48.61947800;9.05303100;2024-03-02T02:00:09;94892.66;;;2.88;100.00
7824;BME280;3957;48.61947800;9.05303100;2024-03-02T02:01:13;94890.03;;;2.88;100.00
7824;BME280;3957;48.61947800;9.05303100;2024-03-02T02:02:15;94887.56;;;2.87;100.00
7824;BME280;3957;48.61947800;9.05303100;2024-03-02T02:03:17;94893.81;;;3.01;100.00
7824;BME280;3957;48.61947800;9.05303100;2024-03-02T02:04:18;94888.25;;;3.11;100.00
7824;BME280;3957;48.61947800;9.05303100;2024-03-02T02:05:23;94879.63;;;3.02;100.00
7824;BME280;3957;48.61947800;9.05303100;2024-03-02T02:06:24;94894.41;;;2.96;100.00
7824;BME280;3957;48.61947800;9.05303100;2024-03-02T02:07:26;94889.41;;;2.86;100.00
7824;BME280;3957;48.61947800;9.05303100;2024-03-02T02:08:27;94888.34;;;2.81;100.00
7824;BME280;3957;48.61947800;9.05303100;2024-03-02T02:09:29;94891.06;;;2.72;100.00
7824;BME280;3957;48.61947800;9.05303100;2024-03-02T02:10:30;94888.88;;;2.76;100.00
7824;BME280;3957;48.61947800;9.05303100;2024-03-02T02:11:32;94886.88;;;2.78;100.00
7824;BME280;3957;48.61947800;9.05303100;2024-03-02T02:12:35;94893.25;;;2.69;100.00
7824;BME280;3957;48.61947800;9.05303100;2024-03-02T02:13:37;94887.72;;;2.64;100.00
7824;BME280;3957;48.61947800;9.05303100;2024-03-02T02:14:39;94886.00;;;2.56;100.00
7824;BME280;3957;48.61947800;9.05303100;2024-03-02T02:15:49;94888.44;;;2.58;100.00
7824;BME280;3957;48.61947800;9.05303100;2024-03-02T02:16:52;94898.09;;;2.50;100.00
7824;BME280;3957;48.61947800;9.05303100;2024-03-02T02:17:54;94892.75;;;2.44;100.00
7824;BME280;3957;48.61947800;9.05303100;2024-03-02T02:18:56;94893.34;;;2.46;100.00
7824;BME280;3957;48.61947800;9.05303100;2024-03-02T02:19:57;94888.44;;;2.43;100.00
7824;BME280;3957;48.61947800;9.05303100;2024-03-02T02:20:59;94887.53;;;2.50;100.00
7824;BME280;3957;48.61947800;9.05303100;2024-03-02T02:22:00;94898.81;;;2.44;100.00
7824;BME280;3957;48.61947800;9.05303100;2024-03-02T02:23:04;94897.03;;;2.45;100.00
7824;BME280;3957;48.61947800;9.05303100;2024-03-02T02:24:07;94891.75;;;2.45;100.00
7824;BME280;3957;48.61947800;9.05303100;2024-03-02T02:25:08;94888.25;;;2.44;100.00
7824;BME280;3957;48.61947800;9.05303100;2024-03-02T02:26:09;94882.72;;;2.39;100.00
7824;BME280;3957;48.61947800;9.05303100;2024-03-02T02:27:11;94882.47;;;2.34;100.00
7824;BME280;3957;48.61947800;9.05303100;2024-03-02T02:28:16;94888.72;;;2.33;100.00
7824;BME280;3957;48.61947800;9.05303100;2024-03-02T02:29:17;94889.81;;;2.38;100.00
7824;BME280;3957;48.61947800;9.05303100;2024-03-02T02:30:20;94888.16;;;2.37;100.00
7824;BME280;3957;48.61947800;9.05303100;2024-03-02T02:31:22;94887.91;;;2.32;100.00
7824;BME280;3957;48.61947800;9.05303100;2024-03-02T02:32:24;94881.09;;;2.38;100.00
7824;BME280;3957;48.61947800;9.05303100;2024-03-02T02:33:25;94890.00;;;2.37;100.00
7824;BME280;3957;48.61947800;9.05303100;2024-03-02T02:34:27;94881.47;;;2.35;100.00
7824;BME280;3957;48.61947800;9.05303100;2024-03-02T02:35:28;94884.16;;;2.42;100.00
7824;BME280;3957;48.61947800;9.05303100;2024-03-02T02:36:33;94884.16;;;2.42;100.00
7824;BME280;3957;48.61947800;9.05303100;2024-03-02T02:37:35;94873.69;;;2.33;100.00
7824;BME280;3957;48.61947800;9.05303100;2024-03-02T02:38:40;94877.09;;;2.27;100.00
7824;BME280;3957;48.61947800;9.05303100;2024-03-02T02:39:44;94871.72;;;2.20;100.00
7824;BME280;3957;48.61947800;9.05303100;2024-03-02T02:40:48;94875.28;;;2.13;100.00
7824;BME280;3957;48.61947800;9.05303100;2024-03-02T02:41:49;94862.59;;;2.08;100.00
7824;BME280;3957;48.61947800;9.05303100;2024-03-02T02:42:50;94864.94;;;2.03;100.00
7824;BME280;3957;48.61947800;9.05303100;2024-03-02T02:43:55;94866.50;;;1.97;100.00
7824;BME280;3957;48.61947800;9.05303100;2024-03-02T02:44:57;94868.50;;;1.95;100.00
7824;BME280;3957;48.61947800;9.05303100;2024-03-02T02:45:58;94867.41;;;1.90;100.00
7824;BME280;3957;48.61947800;9.05303100;2024-03-02T02:47:00;94865.22;;;1.93;100.00
7824;BME280;3957;48.61947800;9.05303100;2024-03-02T02:48:01;94864.22;;;1.94;100.00
7824;BME280;3957;48.61947800;9.05303100;2024-03-02T02:49:04;94869.91;;;2.06;100.00
7824;BME280;3957;48.61947800;9.05303100;2024-03-02T02:50:08;94861.59;;;2.09;100.00
7824;BME280;3957;48.61947800;9.05303100;2024-03-02T02:51:10;94859.16;;;2.08;100.00
7824;BME280;3957;48.61947800;9.05303100;2024-03-02T02:52:12;94860.88;;;2.00;100.00
7824;BME280;3957;48.61947800;9.05303100;2024-03-02T02:53:13;94859.88;;;2.01;100.00
7824;BME280;3957;48.61947800;9.05303100;2024-03-02T02:54:15;94862.16;;;2.04;100.00
7824;BME280;3957;48.61947800;9.05303100;2024-03-02T02:55:17;94856.22;;;2.02;100.00
7824;BME280;3957;48.61947800;9.05303100;2024-03-02T02:56:19;94865.69;;;1.97;100.00
7824;BME280;3957;48.61947800;9.05303100;2024-03-02T02:57:20;94867.72;;;1.95;100.00
7824;BME280;3957;48.61947800;9.05303100;2024-03-02T02:58:22;94860.78;;;1.94;100.00
7824;BME280;3957;48.61947800;9.05303100;2024-03-02T02:59:23;94860.50;;;1.89;100.00
7824;BME280;3957;48.61947800;9.05303100;2024-03-02T03:00:25;94865.47;;;1.83;100.00
7824;BME280;3957;48.61947800;9.05303100;2024-03-02T03:01:27;94862.66;;;1.85;100.00
7824;BME280;3957;48.61947800;9.05303100;2024-03-02T03:02:29;94861.56;;;1.79;100.00
7824;BME280;3957;48.61947800;9.05303100;2024-03-02T03:03:30;94866.84;;;1.79;100.00
7824;BME280;3957;48.61947800;9.05303100;2024-03-02T03:04:32;94863.06;;;1.97;100.00
7824;BME280;3957;48.61947800;9.05303100;2024-03-02T03:05:33;94860.81;;;2.09;100.00
7824;BME280;3957;48.61947800;9.05303100;2024-03-02T03:06:35;94863.88;;;2.12;100.00
7824;BME280;3957;48.61947800;9.05303100;2024-03-02T03:07:36;94867.88;;;2.08;100.00
7824;BME280;3957;48.61947800;9.05303100;2024-03-02T03:08:39;94865.78;;;2.03;100.00
7824;BME280;3957;48.61947800;9.05303100;2024-03-02T03:09:40;94862.69;;;2.00;100.00
7824;BME280;3957;48.61947800;9.05303100;2024-03-02T03:10:42;94858.41;;;1.99;100.00
7824;BME280;3957;48.61947800;9.05303100;2024-03-02T03:11:43;94857.97;;;1.95;100.00
7824;BME280;3957;48.61947800;9.05303100;2024-03-02T03:12:45;94854.78;;;2.00;100.00
7824;BME280;3957;48.61947800;9.05303100;2024-03-02T03:13:47;94866.59;;;2.04;100.00
7824;BME280;3957;48.61947800;9.05303100;2024-03-02T03:14:49;94863.06;;;1.97;100.00
7824;BME280;3957;48.61947800;9.05303100;2024-03-02T03:15:51;94864.59;;;1.91;100.00
7824;BME280;3957;48.61947800;9.05303100;2024-03-02T03:16:52;94862.22;;;2.11;100.00
7824;BME280;3957;48.61947800;9.05303100;2024-03-02T03:17:54;94861.25;;;2.12;100.00
7824;BME280;3957;48.61947800;9.05303100;2024-03-02T03:18:55;94869.53;;;2.09;100.00
7824;BME280;3957;48.61947800;9.05303100;2024-03-02T03:19:57;94862.69;;;2.15;100.00
7824;BME280;3957;48.61947800;9.05303100;2024-03-02T03:20:58;94870.16;;;2.11;100.00
7824;BME280;3957;48.61947800;9.05303100;2024-03-02T03:22:00;94865.41;;;2.07;100.00
7824;BME280;3957;48.61947800;9.05303100;2024-03-02T03:23:02;94862.97;;;2.20;100.00
7824;BME280;3957;48.61947800;9.05303100;2024-03-02T03:24:05;94867.41;;;2.19;100.00
7824;BME280;3957;48.61947800;9.05303100;2024-03-02T03:25:07;94868.53;;;2.25;100.00
7824;BME280;3957;48.61947800;9.05303100;2024-03-02T03:26:11;94862.69;;;2.30;100.00
7824;BME280;3957;48.61947800;9.05303100;2024-03-02T03:27:13;94865.25;;;2.23;100.00
7824;BME280;3957;48.61947800;9.05303100;2024-03-02T03:28:14;94863.78;;;2.20;100.00
7824;BME280;3957;48.61947800;9.05303100;2024-03-02T03:29:16;94855.97;;;2.12;100.00
7824;BME280;3957;48.61947800;9.05303100;2024-03-02T03:30:18;94858.50;;;2.20;100.00
7824;BME280;3957;48.61947800;9.05303100;2024-03-02T03:31:20;94866.31;;;2.14;100.00
7824;BME280;3957;48.61947800;9.05303100;2024-03-02T03:32:21;94864.44;;;2.08;100.00
7824;BME280;3957;48.61947800;9.05303100;2024-03-02T03:33:23;94860.88;;;2.00;100.00
7824;BME280;3957;48.61947800;9.05303100;2024-03-02T03:34:25;94862.31;;;2.18;100.00
7824;BME280;3957;48.61947800;9.05303100;2024-03-02T03:35:28;94862.78;;;2.07;100.00
7824;BME280;3957;48.61947800;9.05303100;2024-03-02T03:36:30;94862.88;;;1.98;100.00
7824;BME280;3957;48.61947800;9.05303100;2024-03-02T03:37:32;94862.94;;;1.90;100.00
7824;BME280;3957;48.61947800;9.05303100;2024-03-02T03:38:36;94867.59;;;1.88;100.00
7824;BME280;3957;48.61947800;9.05303100;2024-03-02T03:39:38;94859.94;;;1.93;100.00
7824;BME280;3957;48.61947800;9.05303100;2024-03-02T03:40:39;94858.69;;;2.04;100.00
7824;BME280;3957;48.61947800;9.05303100;2024-03-02T03:41:41;94858.69;;;2.04;100.00
7824;BME280;3957;48.61947800;9.05303100;2024-03-02T03:42:42;94860.94;;;2.07;100.00
7824;BME280;3957;48.61947800;9.05303100;2024-03-02T03:43:46;94864.34;;;2.01;100.00
7824;BME280;3957;48.61947800;9.05303100;2024-03-02T03:44:47;94865.88;;;1.95;100.00
7824;BME280;3957;48.61947800;9.05303100;2024-03-02T03:45:49;94864.03;;;1.96;100.00
7824;BME280;3957;48.61947800;9.05303100;2024-03-02T03:46:50;94861.59;;;1.94;100.00
7824;BME280;3957;48.61947800;9.05303100;2024-03-02T03:47:53;94865.41;;;1.92;100.00
7824;BME280;3957;48.61947800;9.05303100;2024-03-02T03:48:55;94868.69;;;1.94;100.00
7824;BME280;3957;48.61947800;9.05303100;2024-03-02T03:49:57;94862.31;;;1.88;100.00
7824;BME280;3957;48.61947800;9.05303100;2024-03-02T03:50:59;94868.59;;;1.87;100.00
7824;BME280;3957;48.61947800;9.05303100;2024-03-02T03:52:00;94873.56;;;1.82;100.00
7824;BME280;3957;48.61947800;9.05303100;2024-03-02T03:53:02;94873.56;;;1.82;100.00
7824;BME280;3957;48.61947800;9.05303100;2024-03-02T03:54:04;94869.84;;;1.76;100.00
7824;BME280;3957;48.61947800;9.05303100;2024-03-02T03:55:05;94871.69;;;1.91;100.00
7824;BME280;3957;48.61947800;9.05303100;2024-03-02T03:56:07;94869.94;;;1.83;100.00
7824;BME280;3957;48.61947800;9.05303100;2024-03-02T03:57:09;94872.81;;;1.96;100.00
7824;BME280;3957;48.61947800;9.05303100;2024-03-02T03:58:10;94869.44;;;2.02;100.00
7824;BME280;3957;48.61947800;9.05303100;2024-03-02T03:59:12;94869.31;;;1.96;100.00
7824;BME280;3957;48.61947800;9.05303100;2024-03-02T04:00:14;94874.34;;;1.91;100.00
7824;BME280;3957;48.61947800;9.05303100;2024-03-02T04:01:16;94873.88;;;1.87;100.00
7824;BME280;3957;48.61947800;9.05303100;2024-03-02T04:02:18;94875.34;;;1.90;100.00
7824;BME280;3957;48.61947800;9.05303100;2024-03-02T04:03:19;94873.56;;;1.82;100.00
7824;BME280;3957;48.61947800;9.05303100;2024-03-02T04:04:21;94873.22;;;1.85;100.00
7824;BME280;3957;48.61947800;9.05303100;2024-03-02T04:05:22;94872.59;;;1.83;100.00
7824;BME280;3957;48.61947800;9.05303100;2024-03-02T04:06:24;94870.31;;;1.80;100.00
7824;BME280;3957;48.61947800;9.05303100;2024-03-02T04:07:25;94867.56;;;1.73;100.00
7824;BME280;3957;48.61947800;9.05303100;2024-03-02T04:08:27;94876.84;;;1.69;100.00
7824;BME280;3957;48.61947800;9.05303100;2024-03-02T04:09:28;94861.91;;;1.61;100.00
7824;BME280;3957;48.61947800;9.05303100;2024-03-02T04:10:30;94862.81;;;1.53;100.00
7824;BME280;3957;48.61947800;9.05303100;2024-03-02T04:11:31;94860.50;;;1.50;100.00
7824;BME280;3957;48.61947800;9.05303100;2024-03-02T04:12:33;94862.81;;;1.53;100.00
7824;BME280;3957;48.61947800;9.05303100;2024-03-02T04:13:36;94861.56;;;1.64;100.00
7824;BME280;3957;48.61947800;9.05303100;2024-03-02T04:14:37;94860.38;;;1.67;100.00
7824;BME280;3957;48.61947800;9.05303100;2024-03-02T04:15:39;94863.19;;;1.65;100.00
7824;BME280;3957;48.61947800;9.05303100;2024-03-02T04:16:42;94871.38;;;1.70;100.00
7824;BME280;3957;48.61947800;9.05303100;2024-03-02T04:17:43;94860.38;;;1.67;100.00
7824;BME280;3957;48.61947800;9.05303100;2024-03-02T04:18:45;94873.91;;;1.64;100.00
7824;BME280;3957;48.61947800;9.05303100;2024-03-02T04:19:46;94871.81;;;1.59;100.00
7824;BME280;3957;48.61947800;9.05303100;2024-03-02T04:20:48;94869.88;;;1.53;100.00
7824;BME280;3957;48.61947800;9.05303100;2024-03-02T04:21:52;94872.50;;;1.53;100.00
7824;BME280;3957;48.61947800;9.05303100;2024-03-02T04:22:54;94861.22;;;1.44;100.00
7824;BME280;3957;48.61947800;9.05303100;2024-03-02T04:23:56;94870.31;;;1.42;100.00
7824;BME280;3957;48.61947800;9.05303100;2024-03-02T04:25:00;94865.78;;;1.50;100.00
7824;BME280;3957;48.61947800;9.05303100;2024-03-02T04:26:02;94872.25;;;1.48;100.00
7824;BME280;3957;48.61947800;9.05303100;2024-03-02T04:27:03;94870.13;;;1.43;100.00
7824;BME280;3957;48.61947800;9.05303100;2024-03-02T04:28:05;94866.84;;;1.41;100.00
7824;BME280;3957;48.61947800;9.05303100;2024-03-02T04:29:06;94868.94;;;1.46;100.00
7824;BME280;3957;48.61947800;9.05303100;2024-03-02T04:30:08;94868.88;;;1.54;100.00
7824;BME280;3957;48.61947800;9.05303100;2024-03-02T04:31:09;94871.75;;;1.67;100.00
7824;BME280;3957;48.61947800;9.05303100;2024-03-02T04:32:11;94863.94;;;1.74;100.00
7824;BME280;3957;48.61947800;9.05303100;2024-03-02T04:33:12;94868.56;;;1.72;100.00
7824;BME280;3957;48.61947800;9.05303100;2024-03-02T04:34:14;94862.38;;;1.65;100.00
7824;BME280;3957;48.61947800;9.05303100;2024-03-02T04:35:16;94863.91;;;1.59;100.00
7824;BME280;3957;48.61947800;9.05303100;2024-03-02T04:36:17;94866.25;;;1.54;100.00
7824;BME280;3957;48.61947800;9.05303100;2024-03-02T04:37:19;94864.16;;;1.49;100.00
7824;BME280;3957;48.61947800;9.05303100;2024-03-02T04:38:20;94861.63;;;1.56;100.00
7824;BME280;3957;48.61947800;9.05303100;2024-03-02T04:39:22;94869.06;;;1.52;100.00
7824;BME280;3957;48.61947800;9.05303100;2024-03-02T04:40:24;94866.13;;;1.47;100.00
7824;BME280;3957;48.61947800;9.05303100;2024-03-02T04:41:25;94861.59;;;1.41;100.00
7824;BME280;3957;48.61947800;9.05303100;2024-03-02T04:42:27;94864.56;;;1.38;100.00
7824;BME280;3957;48.61947800;9.05303100;2024-03-02T04:43:29;94862.94;;;1.37;100.00
7824;BME280;3957;48.61947800;9.05303100;2024-03-02T04:44:30;94870.91;;;1.52;100.00
7824;BME280;3957;48.61947800;9.05303100;2024-03-02T04:45:32;94867.78;;;1.48;100.00
7824;BME280;3957;48.61947800;9.05303100;2024-03-02T04:46:33;94866.50;;;1.44;100.00
7824;BME280;3957;48.61947800;9.05303100;2024-03-02T04:47:35;94862.88;;;1.45;100.00
7824;BME280;3957;48.61947800;9.05303100;2024-03-02T04:48:36;94867.84;;;1.40;100.00
7824;BME280;3957;48.61947800;9.05303100;2024-03-02T04:49:38;94866.75;;;1.34;100.00
7824;BME280;3957;48.61947800;9.05303100;2024-03-02T04:50:40;94866.63;;;1.28;100.00
7824;BME280;3957;48.61947800;9.05303100;2024-03-02T04:51:41;94869.63;;;1.25;100.00
7824;BME280;3957;48.61947800;9.05303100;2024-03-02T04:52:43;94875.69;;;1.25;100.00
7824;BME280;3957;48.61947800;9.05303100;2024-03-02T04:53:44;94859.88;;;1.25;100.00
7824;BME280;3957;48.61947800;9.05303100;2024-03-02T04:54:46;94866.69;;;1.19;100.00
7824;BME280;3957;48.61947800;9.05303100;2024-03-02T04:56:06;94864.09;;;1.11;100.00
7824;BME280;3957;48.61947800;9.05303100;2024-03-02T04:57:26;94865.44;;;1.07;100.00
7824;BME280;3957;48.61947800;9.05303100;2024-03-02T04:58:27;94868.63;;;1.02;100.00
7824;BME280;3957;48.61947800;9.05303100;2024-03-02T04:59:29;94874.34;;;1.06;100.00
7824;BME280;3957;48.61947800;9.05303100;2024-03-02T05:00:30;94870.72;;;1.07;100.00
7824;BME280;3957;48.61947800;9.05303100;2024-03-02T05:01:32;94870.25;;;1.04;100.00